sensor_id;sensor_type;location;lat;lon;timestamp;temperature;humidity
935;DHT22;454;53.254;10.400;2023-03-01T05:00:17;-1.90;99.90
935;DHT22;454;53.254;10.400;2023-03-01T05:02:48;-2.00;99.90
935;DHT22;454;53.254;10.400;2023-03-01T05:05:22;-1.90;99.90
935;DHT22;454;53.254;10.400;2023-03-01T05:07:51;-1.90;99.90
935;DHT22;454;53.254;10.400;2023-03-01T05:10:19;-2.00;99.90
935;DHT22;454;53.254;10.400;2023-03-01T05:12:45;-2.00;99.90
935;DHT22;454;53.254;10.400;2023-03-01T05:15:13;-2.00;99.90
935;DHT22;454;53.254;10.400;2023-03-01T05:17:41;-1.90;99.90
935;DHT22;454;53.254;10.400;2023-03-01T05:20:09;-2.00;99.90
935;DHT22;454;53.254;10.400;2023-03-01T05:22:37;-1.90;99.90
935;DHT22;454;53.254;10.400;2023-03-01T05:25:04;-1.90;99.90
935;DHT22;454;53.254;10.400;2023-03-01T05:27:32;-1.90;99.90
935;DHT22;454;53.254;10.400;2023-03-01T05:29:59;-1.90;99.90
935;DHT22;454;53.254;10.400;2023-03-01T05:32:41;-1.90;99.90
935;DHT22;454;53.254;10.400;2023-03-01T05:35:10;-1.80;99.90
935;DHT22;454;53.254;10.400;2023-03-01T05:37:39;-1.80;99.90
935;DHT22;454;53.254;10.400;2023-03-01T05:40:06;-1.80;99.90
935;DHT22;454;53.254;10.400;2023-03-01T05:42:44;-1.70;99.90
935;DHT22;454;53.254;10.400;2023-03-01T05:45:11;-1.70;99.90
935;DHT22;454;53.254;10.400;2023-03-01T05:47:40;-1.70;99.90
935;DHT22;454;53.254;10.400;2023-03-01T05:50:11;-1.70;99.90
935;DHT22;454;53.254;10.400;2023-03-01T05:52:38;-1.70;99.90
935;DHT22;454;53.254;10.400;2023-03-01T05:55:06;-1.60;99.90
935;DHT22;454;53.254;10.400;2023-03-01T05:57:32;-1.60;99.90
935;DHT22;454;53.254;10.400;2023-03-01T05:59:59;-1.60;99.90
935;DHT22;454;53.254;10.400;2023-03-01T06:02:26;-1.60;99.90
935;DHT22;454;53.254;10.400;2023-03-01T06:04:56;-1.50;99.90
935;DHT22;454;53.254;10.400;2023-03-01T06:07:22;-1.50;99.90
935;DHT22;454;53.254;10.400;2023-03-01T06:09:49;-1.50;99.90
935;DHT22;454;53.254;10.400;2023-03-01T06:12:16;-1.50;99.90
935;DHT22;454;53.254;10.400;2023-03-01T06:14:42;-1.50;99.90
935;DHT22;454;53.254;10.400;2023-03-01T06:17:09;-1.40;99.90
935;DHT22;454;53.254;10.400;2023-03-01T06:19:36;-1.40;99.90
935;DHT22;454;53.254;10.400;2023-03-01T06:22:04;-1.40;99.90
935;DHT22;454;53.254;10.400;2023-03-01T06:24:31;-1.40;99.90
935;DHT22;454;53.254;10.400;2023-03-01T06:26:59;-1.30;99.90
935;DHT22;454;53.254;10.400;2023-03-01T06:29:26;-1.30;99.90
935;DHT22;454;53.254;10.400;2023-03-01T06:31:53;-1.30;99.90
935;DHT22;454;53.254;10.400;2023-03-01T06:34:19;-1.30;99.90
935;DHT22;454;53.254;10.400;2023-03-01T06:36:47;-1.30;99.90
935;DHT22;454;53.254;10.400;2023-03-01T06:39:15;-1.30;99.90
935;DHT22;454;53.254;10.400;2023-03-01T06:41:43;-1.20;99.90
935;DHT22;454;53.254;10.400;2023-03-01T06:44:09;-1.20;99.90
935;DHT22;454;53.254;10.400;2023-03-01T06:46:36;-1.10;99.90
935;DHT22;454;53.254;10.400;2023-03-01T06:49:03;-1.10;99.90
935;DHT22;454;53.254;10.400;2023-03-01T06:51:33;-1.00;99.90
935;DHT22;454;53.254;10.400;2023-03-01T06:53:59;-1.00;99.90
935;DHT22;454;53.254;10.400;2023-03-01T06:56:28;-0.90;99.90
935;DHT22;454;53.254;10.400;2023-03-01T06:58:54;-0.80;99.90
935;DHT22;454;53.254;10.400;2023-03-01T07:01:21;-0.70;99.90
935;DHT22;454;53.254;10.400;2023-03-01T07:03:48;-0.70;99.90
935;DHT22;454;53.254;10.400;2023-03-01T07:06:14;-0.70;99.90
935;DHT22;454;53.254;10.400;2023-03-01T07:08:41;-0.70;99.90
935;DHT22;454;53.254;10.400;2023-03-01T07:11:08;-0.60;99.90
935;DHT22;454;53.254;10.400;2023-03-01T07:13:36;-0.50;99.90
935;DHT22;454;53.254;10.400;2023-03-01T07:16:03;-0.50;99.90
935;DHT22;454;53.254;10.400;2023-03-01T07:18:30;-0.40;99.90
935;DHT22;454;53.254;10.400;2023-03-01T07:20:56;-0.30;99.90
935;DHT22;454;53.254;10.400;2023-03-01T07:23:23;-0.30;99.90
935;DHT22;454;53.254;10.400;2023-03-01T07:25:53;-0.20;99.90
935;DHT22;454;53.254;10.400;2023-03-01T07:28:22;-0.10;99.90
935;DHT22;454;53.254;10.400;2023-03-01T07:30:50;-0.10;99.90
935;DHT22;454;53.254;10.400;2023-03-01T07:33:17;0.00;99.90
935;DHT22;454;53.254;10.400;2023-03-01T07:35:44;0.10;99.90
935;DHT22;454;53.254;10.400;2023-03-01T07:38:10;0.20;99.90
935;DHT22;454;53.254;10.400;2023-03-01T07:40:37;0.20;99.90
935;DHT22;454;53.254;10.400;2023-03-01T07:43:04;0.30;99.90
935;DHT22;454;53.254;10.400;2023-03-01T07:45:30;0.40;99.90
935;DHT22;454;53.254;10.400;2023-03-01T07:47:59;0.50;99.90
935;DHT22;454;53.254;10.400;2023-03-01T07:50:25;0.60;99.90
935;DHT22;454;53.254;10.400;2023-03-01T07:52:52;0.70;99.90
935;DHT22;454;53.254;10.400;2023-03-01T07:55:19;0.80;99.90
935;DHT22;454;53.254;10.400;2023-03-01T07:57:46;0.90;99.90
935;DHT22;454;53.254;10.400;2023-03-01T08:00:13;1.00;99.90
935;DHT22;454;53.254;10.400;2023-03-01T08:02:40;1.00;99.90
935;DHT22;454;53.254;10.400;2023-03-01T08:05:09;1.10;99.90
935;DHT22;454;53.254;10.400;2023-03-01T08:07:35;1.20;99.90
935;DHT22;454;53.254;10.400;2023-03-01T08:10:02;1.20;99.90
935;DHT22;454;53.254;10.400;2023-03-01T08:12:29;1.30;99.90
935;DHT22;454;53.254;10.400;2023-03-01T08:14:56;1.40;99.90
935;DHT22;454;53.254;10.400;2023-03-01T08:17:23;1.40;99.90
935;DHT22;454;53.254;10.400;2023-03-01T08:19:50;1.40;99.90
935;DHT22;454;53.254;10.400;2023-03-01T08:22:18;1.50;99.90
935;DHT22;454;53.254;10.400;2023-03-01T08:24:44;1.60;99.90
935;DHT22;454;53.254;10.400;2023-03-01T08:27:11;1.60;99.90
935;DHT22;454;53.254;10.400;2023-03-01T08:29:38;1.80;99.90
935;DHT22;454;53.254;10.400;2023-03-01T08:32:05;1.90;99.90
935;DHT22;454;53.254;10.400;2023-03-01T08:34:32;2.00;99.90
935;DHT22;454;53.254;10.400;2023-03-01T08:37:01;2.10;99.90
935;DHT22;454;53.254;10.400;2023-03-01T08:39:29;2.10;99.90
935;DHT22;454;53.254;10.400;2023-03-01T08:41:56;2.20;99.90
935;DHT22;454;53.254;10.400;2023-03-01T08:44:23;2.30;99.90
935;DHT22;454;53.254;10.400;2023-03-01T08:46:50;2.40;99.90
935;DHT22;454;53.254;10.400;2023-03-01T08:49:19;2.40;99.90
935;DHT22;454;53.254;10.400;2023-03-01T08:51:47;2.50;99.90
935;DHT22;454;53.254;10.400;2023-03-01T08:54:15;2.70;99.90
935;DHT22;454;53.254;10.400;2023-03-01T08:56:43;2.80;99.90
935;DHT22;454;53.254;10.400;2023-03-01T08:59:11;2.90;99.90
935;DHT22;454;53.254;10.400;2023-03-01T09:01:38;3.10;99.90
935;DHT22;454;53.254;10.400;2023-03-01T09:04:05;3.10;99.90
935;DHT22;454;53.254;10.400;2023-03-01T09:06:33;3.30;99.90
935;DHT22;454;53.254;10.400;2023-03-01T09:09:01;3.40;99.90
935;DHT22;454;53.254;10.400;2023-03-01T09:11:28;3.50;99.90
935;DHT22;454;53.254;10.400;2023-03-01T09:13:57;3.70;99.90
935;DHT22;454;53.254;10.400;2023-03-01T09:16:24;3.80;99.90
935;DHT22;454;53.254;10.400;2023-03-01T09:18:51;3.90;99.90
935;DHT22;454;53.254;10.400;2023-03-01T09:21:19;3.90;99.90
935;DHT22;454;53.254;10.400;2023-03-01T09:23:47;4.00;99.90
935;DHT22;454;53.254;10.400;2023-03-01T09:26:16;4.00;99.90
935;DHT22;454;53.254;10.400;2023-03-01T09:28:45;4.10;99.90
935;DHT22;454;53.254;10.400;2023-03-01T09:31:14;4.20;99.90
935;DHT22;454;53.254;10.400;2023-03-01T09:33:42;4.30;99.90
935;DHT22;454;53.254;10.400;2023-03-01T09:36:12;4.40;99.90
935;DHT22;454;53.254;10.400;2023-03-01T09:38:39;4.50;99.90
935;DHT22;454;53.254;10.400;2023-03-01T09:41:11;4.50;99.90
935;DHT22;454;53.254;10.400;2023-03-01T09:43:49;4.60;99.90
935;DHT22;454;53.254;10.400;2023-03-01T09:46:22;4.70;99.90
935;DHT22;454;53.254;10.400;2023-03-01T09:48:52;4.70;99.90
935;DHT22;454;53.254;10.400;2023-03-01T09:51:26;4.70;99.90
935;DHT22;454;53.254;10.400;2023-03-01T09:53:53;4.80;99.90
935;DHT22;454;53.254;10.400;2023-03-01T09:56:27;5.00;99.90
935;DHT22;454;53.254;10.400;2023-03-01T09:59:00;5.00;99.90
935;DHT22;454;53.254;10.400;2023-03-01T10:01:35;5.00;99.90
935;DHT22;454;53.254;10.400;2023-03-01T10:04:24;5.00;99.90
935;DHT22;454;53.254;10.400;2023-03-01T10:07:06;5.10;99.90
935;DHT22;454;53.254;10.400;2023-03-01T10:09:40;5.20;99.90
935;DHT22;454;53.254;10.400;2023-03-01T10:12:10;5.30;99.90
935;DHT22;454;53.254;10.400;2023-03-01T10:14:40;5.40;99.90
935;DHT22;454;53.254;10.400;2023-03-01T10:17:20;5.50;99.90
935;DHT22;454;53.254;10.400;2023-03-01T10:19:50;5.60;99.90
935;DHT22;454;53.254;10.400;2023-03-01T10:22:19;5.70;99.90
935;DHT22;454;53.254;10.400;2023-03-01T10:24:47;5.70;99.90
935;DHT22;454;53.254;10.400;2023-03-01T10:27:19;5.80;99.90
935;DHT22;454;53.254;10.400;2023-03-01T10:29:53;5.90;99.90
935;DHT22;454;53.254;10.400;2023-03-01T10:32:24;6.00;99.90
935;DHT22;454;53.254;10.400;2023-03-01T10:34:51;6.10;99.90
935;DHT22;454;53.254;10.400;2023-03-01T10:37:19;6.20;99.90
935;DHT22;454;53.254;10.400;2023-03-01T10:39:58;6.30;99.90
935;DHT22;454;53.254;10.400;2023-03-01T10:42:29;6.30;99.90
935;DHT22;454;53.254;10.400;2023-03-01T10:44:57;6.30;99.90
935;DHT22;454;53.254;10.400;2023-03-01T10:47:27;6.50;99.90
935;DHT22;454;53.254;10.400;2023-03-01T10:49:59;6.50;99.90
935;DHT22;454;53.254;10.400;2023-03-01T10:52:30;6.60;99.90
935;DHT22;454;53.254;10.400;2023-03-01T10:54:59;6.70;99.90
935;DHT22;454;53.254;10.400;2023-03-01T10:57:36;6.70;99.90
935;DHT22;454;53.254;10.400;2023-03-01T11:00:19;6.80;99.90
935;DHT22;454;53.254;10.400;2023-03-01T11:02:50;6.80;99.90
935;DHT22;454;53.254;10.400;2023-03-01T11:05:21;6.70;99.90
935;DHT22;454;53.254;10.400;2023-03-01T11:07:50;6.70;99.90
935;DHT22;454;53.254;10.400;2023-03-01T11:10:19;6.60;99.90
935;DHT22;454;53.254;10.400;2023-03-01T11:12:47;6.60;99.90
935;DHT22;454;53.254;10.400;2023-03-01T11:15:23;6.60;99.90
935;DHT22;454;53.254;10.400;2023-03-01T11:17:52;6.50;99.90
935;DHT22;454;53.254;10.400;2023-03-01T11:20:25;6.50;99.90
935;DHT22;454;53.254;10.400;2023-03-01T11:22:54;6.50;99.90
935;DHT22;454;53.254;10.400;2023-03-01T11:25:25;6.60;99.90
935;DHT22;454;53.254;10.400;2023-03-01T11:27:53;6.60;99.90
935;DHT22;454;53.254;10.400;2023-03-01T11:30:24;6.70;99.90
935;DHT22;454;53.254;10.400;2023-03-01T11:33:02;6.80;99.90
935;DHT22;454;53.254;10.400;2023-03-01T11:35:30;6.90;99.90
935;DHT22;454;53.254;10.400;2023-03-01T11:38:09;7.00;99.90
935;DHT22;454;53.254;10.400;2023-03-01T11:40:44;7.00;99.90
935;DHT22;454;53.254;10.400;2023-03-01T11:43:20;7.10;99.90
935;DHT22;454;53.254;10.400;2023-03-01T11:48:53;7.20;99.90
935;DHT22;454;53.254;10.400;2023-03-01T11:51:37;7.10;99.90
935;DHT22;454;53.254;10.400;2023-03-01T11:54:13;7.20;99.90
935;DHT22;454;53.254;10.400;2023-03-01T11:56:48;7.30;99.90
935;DHT22;454;53.254;10.400;2023-03-01T11:59:37;7.30;99.90
935;DHT22;454;53.254;10.400;2023-03-01T12:02:45;7.30;99.90
935;DHT22;454;53.254;10.400;2023-03-01T12:05:25;7.40;99.90
935;DHT22;454;53.254;10.400;2023-03-01T12:08:02;7.50;99.90
935;DHT22;454;53.254;10.400;2023-03-01T12:10:35;7.50;99.90
935;DHT22;454;53.254;10.400;2023-03-01T12:13:19;7.50;99.90
935;DHT22;454;53.254;10.400;2023-03-01T12:16:06;7.50;99.90
935;DHT22;454;53.254;10.400;2023-03-01T12:21:37;7.60;99.90
935;DHT22;454;53.254;10.400;2023-03-01T12:24:23;7.70;99.90
935;DHT22;454;53.254;10.400;2023-03-01T12:27:06;7.70;99.90
935;DHT22;454;53.254;10.400;2023-03-01T12:29:43;7.80;99.90
935;DHT22;454;53.254;10.400;2023-03-01T12:32:32;7.80;99.90
935;DHT22;454;53.254;10.400;2023-03-01T12:38:06;7.80;99.90
935;DHT22;454;53.254;10.400;2023-03-01T12:41:01;7.80;99.90
935;DHT22;454;53.254;10.400;2023-03-01T12:43:41;7.80;99.90
935;DHT22;454;53.254;10.400;2023-03-01T12:46:24;7.80;99.90
935;DHT22;454;53.254;10.400;2023-03-01T12:48:59;7.80;99.90
935;DHT22;454;53.254;10.400;2023-03-01T12:51:31;7.80;99.90
935;DHT22;454;53.254;10.400;2023-03-01T12:54:01;7.80;99.90
935;DHT22;454;53.254;10.400;2023-03-01T12:56:32;7.80;99.90
935;DHT22;454;53.254;10.400;2023-03-01T12:59:06;7.90;99.90
935;DHT22;454;53.254;10.400;2023-03-01T13:01:45;7.90;99.90
935;DHT22;454;53.254;10.400;2023-03-01T13:04:23;8.00;99.90
935;DHT22;454;53.254;10.400;2023-03-01T13:06:59;8.00;99.90
935;DHT22;454;53.254;10.400;2023-03-01T13:09:35;8.10;99.90
935;DHT22;454;53.254;10.400;2023-03-01T13:12:14;8.20;99.90
935;DHT22;454;53.254;10.400;2023-03-01T13:15:00;8.20;99.90
935;DHT22;454;53.254;10.400;2023-03-01T13:17:32;8.20;99.90
935;DHT22;454;53.254;10.400;2023-03-01T13:19:59;8.20;99.90
935;DHT22;454;53.254;10.400;2023-03-01T13:22:29;8.20;99.90
935;DHT22;454;53.254;10.400;2023-03-01T13:25:02;8.20;99.90
935;DHT22;454;53.254;10.400;2023-03-01T13:27:29;8.20;99.90
935;DHT22;454;53.254;10.400;2023-03-01T13:29:58;8.30;99.90
935;DHT22;454;53.254;10.400;2023-03-01T13:32:31;8.30;99.90
935;DHT22;454;53.254;10.400;2023-03-01T13:34:59;8.40;99.90
935;DHT22;454;53.254;10.400;2023-03-01T13:37:31;8.50;99.90
935;DHT22;454;53.254;10.400;2023-03-01T13:40:03;8.50;99.90
935;DHT22;454;53.254;10.400;2023-03-01T13:42:34;8.50;99.90
935;DHT22;454;53.254;10.400;2023-03-01T13:45:03;8.40;99.90
935;DHT22;454;53.254;10.400;2023-03-01T13:47:39;8.30;99.90
935;DHT22;454;53.254;10.400;2023-03-01T13:50:06;8.30;99.90
935;DHT22;454;53.254;10.400;2023-03-01T13:52:39;8.30;99.90
935;DHT22;454;53.254;10.400;2023-03-01T13:55:17;8.30;99.90
935;DHT22;454;53.254;10.400;2023-03-01T13:57:47;8.30;99.90
935;DHT22;454;53.254;10.400;2023-03-01T14:00:34;8.30;99.90
935;DHT22;454;53.254;10.400;2023-03-01T14:03:10;8.40;99.90
935;DHT22;454;53.254;10.400;2023-03-01T14:05:38;8.40;99.90
935;DHT22;454;53.254;10.400;2023-03-01T14:08:17;8.30;99.90
935;DHT22;454;53.254;10.400;2023-03-01T14:10:53;8.40;99.90
935;DHT22;454;53.254;10.400;2023-03-01T14:13:39;8.40;99.90
935;DHT22;454;53.254;10.400;2023-03-01T14:16:19;8.50;99.90
935;DHT22;454;53.254;10.400;2023-03-01T14:18:57;8.50;99.90
935;DHT22;454;53.254;10.400;2023-03-01T14:21:27;8.50;99.90
935;DHT22;454;53.254;10.400;2023-03-01T14:23:54;8.50;99.90
935;DHT22;454;53.254;10.400;2023-03-01T14:26:22;8.60;99.90
935;DHT22;454;53.254;10.400;2023-03-01T14:28:49;8.50;99.90
935;DHT22;454;53.254;10.400;2023-03-01T14:31:32;8.50;99.90
935;DHT22;454;53.254;10.400;2023-03-01T14:34:02;8.60;99.90
935;DHT22;454;53.254;10.400;2023-03-01T14:36:31;8.50;99.90
935;DHT22;454;53.254;10.400;2023-03-01T14:38:58;8.40;99.90
935;DHT22;454;53.254;10.400;2023-03-01T14:41:32;8.40;99.90
935;DHT22;454;53.254;10.400;2023-03-01T14:44:02;8.40;99.90
935;DHT22;454;53.254;10.400;2023-03-01T14:46:32;8.50;99.90
935;DHT22;454;53.254;10.400;2023-03-01T14:49:04;8.50;99.90
935;DHT22;454;53.254;10.400;2023-03-01T14:51:36;8.60;99.90
935;DHT22;454;53.254;10.400;2023-03-01T14:54:05;8.50;99.90
935;DHT22;454;53.254;10.400;2023-03-01T14:56:44;8.50;99.90
935;DHT22;454;53.254;10.400;2023-03-01T14:59:11;8.50;99.90
935;DHT22;454;53.254;10.400;2023-03-01T15:01:38;8.50;99.90
935;DHT22;454;53.254;10.400;2023-03-01T15:04:11;8.50;99.90
935;DHT22;454;53.254;10.400;2023-03-01T15:06:38;8.40;99.90
935;DHT22;454;53.254;10.400;2023-03-01T15:09:06;8.40;99.90
935;DHT22;454;53.254;10.400;2023-03-01T15:11:34;8.40;99.90
935;DHT22;454;53.254;10.400;2023-03-01T15:14:25;8.40;99.90
935;DHT22;454;53.254;10.400;2023-03-01T15:16:52;8.40;99.90
935;DHT22;454;53.254;10.400;2023-03-01T15:19:22;8.40;99.90
935;DHT22;454;53.254;10.400;2023-03-01T15:21:50;8.40;99.90
935;DHT22;454;53.254;10.400;2023-03-01T15:24:20;8.40;99.90
935;DHT22;454;53.254;10.400;2023-03-01T15:26:52;8.30;99.90
935;DHT22;454;53.254;10.400;2023-03-01T15:29:22;8.30;99.90
935;DHT22;454;53.254;10.400;2023-03-01T15:31:57;8.30;99.90
935;DHT22;454;53.254;10.400;2023-03-01T15:34:28;8.30;99.90
935;DHT22;454;53.254;10.400;2023-03-01T15:36:56;8.40;99.90
935;DHT22;454;53.254;10.400;2023-03-01T15:39:35;8.30;99.90
935;DHT22;454;53.254;10.400;2023-03-01T15:42:05;8.30;99.90
935;DHT22;454;53.254;10.400;2023-03-01T15:44:33;8.20;99.90
935;DHT22;454;53.254;10.400;2023-03-01T15:47:01;8.20;99.90
935;DHT22;454;53.254;10.400;2023-03-01T15:49:35;8.20;99.90
935;DHT22;454;53.254;10.400;2023-03-01T15:52:03;8.20;99.90
935;DHT22;454;53.254;10.400;2023-03-01T15:54:30;8.20;99.90
935;DHT22;454;53.254;10.400;2023-03-01T15:56:56;8.20;99.90
935;DHT22;454;53.254;10.400;2023-03-01T15:59:23;8.10;99.90
935;DHT22;454;53.254;10.400;2023-03-01T16:01:51;8.00;99.90
935;DHT22;454;53.254;10.400;2023-03-01T16:04:18;8.00;99.90
935;DHT22;454;53.254;10.400;2023-03-01T16:06:50;7.90;99.90
935;DHT22;454;53.254;10.400;2023-03-01T16:09:20;7.90;99.90
935;DHT22;454;53.254;10.400;2023-03-01T16:11:47;7.80;99.90
935;DHT22;454;53.254;10.400;2023-03-01T16:14:14;7.80;99.90
935;DHT22;454;53.254;10.400;2023-03-01T16:16:41;7.70;99.90
935;DHT22;454;53.254;10.400;2023-03-01T16:19:09;7.70;99.90
935;DHT22;454;53.254;10.400;2023-03-01T16:21:37;7.60;99.90
935;DHT22;454;53.254;10.400;2023-03-01T16:24:06;7.50;99.90
935;DHT22;454;53.254;10.400;2023-03-01T16:26:32;7.50;99.90
935;DHT22;454;53.254;10.400;2023-03-01T16:28:59;7.40;99.90
935;DHT22;454;53.254;10.400;2023-03-01T16:31:26;7.40;99.90
935;DHT22;454;53.254;10.400;2023-03-01T16:33:54;7.30;99.90
935;DHT22;454;53.254;10.400;2023-03-01T16:36:22;7.20;99.90
935;DHT22;454;53.254;10.400;2023-03-01T16:38:50;7.30;99.90
935;DHT22;454;53.254;10.400;2023-03-01T16:41:20;7.20;99.90
935;DHT22;454;53.254;10.400;2023-03-01T16:43:48;7.20;99.90
935;DHT22;454;53.254;10.400;2023-03-01T16:46:17;7.20;99.90
935;DHT22;454;53.254;10.400;2023-03-01T16:48:45;7.10;99.90
935;DHT22;454;53.254;10.400;2023-03-01T16:51:12;7.10;99.90
935;DHT22;454;53.254;10.400;2023-03-01T16:53:39;6.90;99.90
935;DHT22;454;53.254;10.400;2023-03-01T16:56:08;6.90;99.90
935;DHT22;454;53.254;10.400;2023-03-01T16:58:38;6.80;99.90
935;DHT22;454;53.254;10.400;2023-03-01T17:01:07;6.70;99.90
935;DHT22;454;53.254;10.400;2023-03-01T17:03:34;6.60;99.90
935;DHT22;454;53.254;10.400;2023-03-01T17:06:02;6.40;99.90
935;DHT22;454;53.254;10.400;2023-03-01T17:08:30;6.30;99.90
935;DHT22;454;53.254;10.400;2023-03-01T17:11:03;6.20;99.90
935;DHT22;454;53.254;10.400;2023-03-01T17:13:29;6.10;99.90
935;DHT22;454;53.254;10.400;2023-03-01T17:15:57;6.00;99.90
935;DHT22;454;53.254;10.400;2023-03-01T17:18:24;5.90;99.90
935;DHT22;454;53.254;10.400;2023-03-01T17:20:51;5.90;99.90
935;DHT22;454;53.254;10.400;2023-03-01T17:23:17;5.90;99.90
935;DHT22;454;53.254;10.400;2023-03-01T17:25:44;6.00;99.90
935;DHT22;454;53.254;10.400;2023-03-01T17:28:12;6.00;99.90
935;DHT22;454;53.254;10.400;2023-03-01T17:30:41;6.10;99.90
935;DHT22;454;53.254;10.400;2023-03-01T17:33:11;6.10;99.90
935;DHT22;454;53.254;10.400;2023-03-01T17:35:37;6.10;99.90
935;DHT22;454;53.254;10.400;2023-03-01T17:38:05;6.10;99.90
935;DHT22;454;53.254;10.400;2023-03-01T17:40:32;6.00;99.90
935;DHT22;454;53.254;10.400;2023-03-01T17:43:00;6.00;99.90
935;DHT22;454;53.254;10.400;2023-03-01T17:45:27;6.00;99.90
935;DHT22;454;53.254;10.400;2023-03-01T17:47:54;5.90;99.90
935;DHT22;454;53.254;10.400;2023-03-01T17:50:22;5.90;99.90
935;DHT22;454;53.254;10.400;2023-03-01T17:52:49;5.80;99.90
935;DHT22;454;53.254;10.400;2023-03-01T17:55:16;5.80;99.90
935;DHT22;454;53.254;10.400;2023-03-01T17:57:42;5.80;99.90
935;DHT22;454;53.254;10.400;2023-03-01T18:00:12;5.80;99.90
935;DHT22;454;53.254;10.400;2023-03-01T18:02:38;5.70;99.90
935;DHT22;454;53.254;10.400;2023-03-01T18:05:06;5.70;99.90
935;DHT22;454;53.254;10.400;2023-03-01T18:07:35;5.60;99.90
935;DHT22;454;53.254;10.400;2023-03-01T18:10:02;5.60;99.90
935;DHT22;454;53.254;10.400;2023-03-01T18:12:29;5.60;99.90
935;DHT22;454;53.254;10.400;2023-03-01T18:14:56;5.50;99.90
935;DHT22;454;53.254;10.400;2023-03-01T18:17:23;5.50;99.90
935;DHT22;454;53.254;10.400;2023-03-01T18:19:51;5.50;99.90
935;DHT22;454;53.254;10.400;2023-03-01T18:22:18;5.40;99.90
935;DHT22;454;53.254;10.400;2023-03-01T18:24:46;5.40;99.90
935;DHT22;454;53.254;10.400;2023-03-01T18:27:12;5.30;99.90
935;DHT22;454;53.254;10.400;2023-03-01T18:29:39;5.20;99.90
935;DHT22;454;53.254;10.400;2023-03-01T18:32:06;5.20;99.90
935;DHT22;454;53.254;10.400;2023-03-01T18:34:33;5.10;99.90
935;DHT22;454;53.254;10.400;2023-03-01T18:37:00;5.00;99.90
935;DHT22;454;53.254;10.400;2023-03-01T18:39:27;5.00;99.90
935;DHT22;454;53.254;10.400;2023-03-01T18:41:55;5.00;99.90
935;DHT22;454;53.254;10.400;2023-03-01T18:44:21;4.90;99.90
935;DHT22;454;53.254;10.400;2023-03-01T18:46:48;4.90;99.90
935;DHT22;454;53.254;10.400;2023-03-01T18:49:15;4.80;99.90
935;DHT22;454;53.254;10.400;2023-03-01T18:51:42;4.80;99.90
935;DHT22;454;53.254;10.400;2023-03-01T18:54:10;4.70;99.90
935;DHT22;454;53.254;10.400;2023-03-01T18:56:37;4.70;99.90
935;DHT22;454;53.254;10.400;2023-03-01T18:59:06;4.60;99.90
935;DHT22;454;53.254;10.400;2023-03-01T19:01:33;4.60;99.90
935;DHT22;454;53.254;10.400;2023-03-01T19:03:59;4.50;99.90
935;DHT22;454;53.254;10.400;2023-03-01T19:06:28;4.50;99.90
935;DHT22;454;53.254;10.400;2023-03-01T19:08:56;4.40;99.90
935;DHT22;454;53.254;10.400;2023-03-01T19:11:23;4.40;99.90
935;DHT22;454;53.254;10.400;2023-03-01T19:13:52;4.40;99.90
935;DHT22;454;53.254;10.400;2023-03-01T19:16:24;4.30;99.90
935;DHT22;454;53.254;10.400;2023-03-01T19:18:54;4.20;99.90
935;DHT22;454;53.254;10.400;2023-03-01T19:21:24;4.20;99.90
935;DHT22;454;53.254;10.400;2023-03-01T19:23:51;4.10;99.90
935;DHT22;454;53.254;10.400;2023-03-01T19:26:20;4.10;99.90
935;DHT22;454;53.254;10.400;2023-03-01T19:28:47;4.00;99.90
935;DHT22;454;53.254;10.400;2023-03-01T19:31:16;3.90;99.90
935;DHT22;454;53.254;10.400;2023-03-01T19:33:44;3.80;99.90
935;DHT22;454;53.254;10.400;2023-03-01T19:36:12;3.70;99.90
935;DHT22;454;53.254;10.400;2023-03-01T19:38:40;3.70;99.90
935;DHT22;454;53.254;10.400;2023-03-01T19:41:09;3.50;99.90
935;DHT22;454;53.254;10.400;2023-03-01T19:43:36;3.40;99.90
935;DHT22;454;53.254;10.400;2023-03-01T19:46:03;3.30;99.90
935;DHT22;454;53.254;10.400;2023-03-01T19:48:30;3.20;99.90
935;DHT22;454;53.254;10.400;2023-03-01T19:50:58;3.10;99.90
935;DHT22;454;53.254;10.400;2023-03-01T19:53:25;3.10;99.90
935;DHT22;454;53.254;10.400;2023-03-01T19:55:56;3.00;99.90
935;DHT22;454;53.254;10.400;2023-03-01T19:58:23;3.00;99.90
935;DHT22;454;53.254;10.400;2023-03-01T20:00:50;3.00;99.90
935;DHT22;454;53.254;10.400;2023-03-01T20:03:23;2.90;99.90
935;DHT22;454;53.254;10.400;2023-03-01T20:05:50;2.90;99.90
935;DHT22;454;53.254;10.400;2023-03-01T20:08:18;2.90;99.90
935;DHT22;454;53.254;10.400;2023-03-01T20:10:44;2.90;99.90
935;DHT22;454;53.254;10.400;2023-03-01T20:13:11;2.80;99.90
935;DHT22;454;53.254;10.400;2023-03-01T20:15:40;2.80;99.90
935;DHT22;454;53.254;10.400;2023-03-01T20:18:06;2.70;99.90
935;DHT22;454;53.254;10.400;2023-03-01T20:20:34;2.70;99.90
935;DHT22;454;53.254;10.400;2023-03-01T20:23:01;2.70;99.90
935;DHT22;454;53.254;10.400;2023-03-01T20:25:29;2.60;99.90
935;DHT22;454;53.254;10.400;2023-03-01T20:27:55;2.60;99.90
935;DHT22;454;53.254;10.400;2023-03-01T20:30:22;2.60;99.90
935;DHT22;454;53.254;10.400;2023-03-01T20:32:49;2.60;99.90
935;DHT22;454;53.254;10.400;2023-03-01T20:35:16;2.60;99.90
935;DHT22;454;53.254;10.400;2023-03-01T20:37:42;2.50;99.90
935;DHT22;454;53.254;10.400;2023-03-01T20:40:10;2.60;99.90
935;DHT22;454;53.254;10.400;2023-03-01T20:42:39;2.50;99.90
935;DHT22;454;53.254;10.400;2023-03-01T20:45:06;2.50;99.90
935;DHT22;454;53.254;10.400;2023-03-01T20:47:33;2.60;99.90
935;DHT22;454;53.254;10.400;2023-03-01T20:50:00;2.60;99.90
935;DHT22;454;53.254;10.400;2023-03-01T20:52:28;2.50;99.90
935;DHT22;454;53.254;10.400;2023-03-01T20:54:54;2.60;99.90
935;DHT22;454;53.254;10.400;2023-03-01T20:57:21;2.60;99.90
935;DHT22;454;53.254;10.400;2023-03-01T20:59:49;2.60;99.90
935;DHT22;454;53.254;10.400;2023-03-01T21:02:16;2.60;99.90
935;DHT22;454;53.254;10.400;2023-03-01T21:04:42;2.60;99.90
935;DHT22;454;53.254;10.400;2023-03-01T21:07:09;2.60;99.90
935;DHT22;454;53.254;10.400;2023-03-01T21:09:36;2.60;99.90
935;DHT22;454;53.254;10.400;2023-03-01T21:12:02;2.50;99.90
935;DHT22;454;53.254;10.400;2023-03-01T21:14:29;2.40;99.90
935;DHT22;454;53.254;10.400;2023-03-01T21:17:08;2.40;99.90
935;DHT22;454;53.254;10.400;2023-03-01T21:19:36;2.30;99.90
935;DHT22;454;53.254;10.400;2023-03-01T21:22:03;2.40;99.90
935;DHT22;454;53.254;10.400;2023-03-01T21:24:30;2.30;99.90
935;DHT22;454;53.254;10.400;2023-03-01T21:26:57;2.30;99.90
935;DHT22;454;53.254;10.400;2023-03-01T21:29:24;2.30;99.90
935;DHT22;454;53.254;10.400;2023-03-01T21:31:50;2.30;99.90
935;DHT22;454;53.254;10.400;2023-03-01T21:34:19;2.30;99.90
935;DHT22;454;53.254;10.400;2023-03-01T21:36:46;2.30;99.90
935;DHT22;454;53.254;10.400;2023-03-01T21:39:13;2.30;99.90
935;DHT22;454;53.254;10.400;2023-03-01T21:41:40;2.40;99.90
935;DHT22;454;53.254;10.400;2023-03-01T21:44:07;2.40;99.90
935;DHT22;454;53.254;10.400;2023-03-01T21:46:35;2.40;99.90
935;DHT22;454;53.254;10.400;2023-03-01T21:49:03;2.30;99.90
935;DHT22;454;53.254;10.400;2023-03-01T21:51:33;2.30;99.90
935;DHT22;454;53.254;10.400;2023-03-01T21:54:00;2.20;99.90
935;DHT22;454;53.254;10.400;2023-03-01T21:56:29;2.20;99.90